Time;durP1;ratioP1;P1;durP2;ratioP2;P2;SDS_P1;SDS_P2;PMS_P1;PMS_P2;Temp;Humidity;BMP_temperature;BMP_pressure;BME280_temperature;BME280_humidity;BME280_pressure;Samples;Min_cycle;Max_cycle;Signal;HPM_P1;HPM_P2
2023/10/10 00:02:19;;;;;;;1.50;1.00;;;15.40;98.20;;;;;;4988219;28;20917;-85
2023/10/10 00:04:49;;;;;;;1.50;1.00;;;15.40;98.20;;;;;;4984164;28;20458;-86
2023/10/10 00:07:19;;;;;;;1.50;1.00;;;15.40;98.20;;;;;;4978060;28;20489;-85
2023/10/10 00:09:53;;;;;;;1.50;0.90;;;15.30;98.20;;;;;;4980555;28;20529;-86
2023/10/10 00:12:26;;;;;;;1.50;1.00;;;15.30;98.20;;;;;;4990521;28;20484;-84
2023/10/10 00:14:56;;;;;;;1.70;1.43;;;15.30;98.20;;;;;;4984012;28;20476;-87
2023/10/10 00:17:34;;;;;;;1.50;1.00;;;15.30;98.20;;;;;;4976718;28;20489;-84
2023/10/10 00:20:06;;;;;;;1.50;1.00;;;15.20;98.20;;;;;;4977558;28;20477;-86
2023/10/10 00:22:36;;;;;;;1.50;1.00;;;15.20;98.20;;;;;;4975274;28;20477;-85
2023/10/10 00:25:16;;;;;;;1.50;1.00;;;15.20;98.20;;;;;;4977206;28;21010;-86
2023/10/10 00:27:44;;;;;;;1.50;1.10;;;15.10;98.20;;;;;;4973341;28;20488;-85
2023/10/10 00:30:11;;;;;;;1.50;1.10;;;15.10;98.20;;;;;;4977556;28;20496;-87
2023/10/10 00:32:42;;;;;;;1.50;1.00;;;15.10;98.20;;;;;;4982692;28;20879;-85
2023/10/10 00:35:10;;;;;;;1.50;1.00;;;15.10;98.20;;;;;;4977793;28;20529;-84
2023/10/10 00:37:37;;;;;;;1.50;1.00;;;15.10;98.20;;;;;;4974474;28;20496;-86
2023/10/10 00:40:25;;;;;;;1.50;1.00;;;15.10;98.20;;;;;;4979132;28;20533;-85
2023/10/10 00:43:14;;;;;;;1.50;1.00;;;15.10;98.20;;;;;;4983636;28;21002;-87
2023/10/10 00:45:42;;;;;;;1.50;1.00;;;15.00;98.20;;;;;;4971353;28;20513;-86
2023/10/10 00:48:21;;;;;;;1.50;1.00;;;15.00;98.20;;;;;;4979244;28;20482;-84
2023/10/10 00:51:05;;;;;;;1.50;1.00;;;15.00;98.20;;;;;;4967886;28;20878;-85
2023/10/10 00:53:33;;;;;;;1.60;1.20;;;15.00;98.20;;;;;;4996436;28;20570;-85
2023/10/10 00:56:06;;;;;;;1.50;1.00;;;14.90;98.20;;;;;;4966878;28;20929;-84
2023/10/10 00:58:48;;;;;;;1.50;1.00;;;14.90;98.20;;;;;;4994008;28;20512;-86
2023/10/10 01:01:30;;;;;;;1.50;1.00;;;14.90;98.20;;;;;;4975961;28;20495;-85
2023/10/10 01:03:58;;;;;;;1.50;1.00;;;14.90;98.20;;;;;;4998996;28;20526;-85
2023/10/10 01:06:39;;;;;;;1.50;1.10;;;14.90;98.20;;;;;;4979371;28;20483;-86
2023/10/10 01:09:20;;;;;;;1.50;1.10;;;14.90;98.20;;;;;;4989884;28;20552;-84
2023/10/10 01:11:49;;;;;;;1.50;1.00;;;14.90;98.20;;;;;;4979206;28;20802;-85
2023/10/10 01:14:24;;;;;;;1.50;1.00;;;14.90;98.20;;;;;;4981465;28;20568;-85
2023/10/10 01:16:57;;;;;;;1.50;1.00;;;14.90;98.20;;;;;;4980387;28;20494;-85
2023/10/10 01:19:35;;;;;;;1.60;1.40;;;14.90;98.20;;;;;;4992456;28;20489;-85
2023/10/10 01:25:05;;;;;;;1.50;1.00;;;14.90;98.20;;;;;;4986054;28;20556;-85
2023/10/10 01:27:37;;;;;;;1.50;1.00;;;14.90;98.20;;;;;;4991847;28;20544;-85
2023/10/10 01:30:17;;;;;;;1.50;1.00;;;14.90;98.20;;;;;;4980241;28;20572;-84
2023/10/10 01:32:50;;;;;;;1.50;1.10;;;14.80;98.20;;;;;;4999811;28;20476;-85
2023/10/10 01:35:23;;;;;;;1.50;1.00;;;14.80;98.20;;;;;;4991082;28;20466;-84
2023/10/10 01:37:54;;;;;;;1.50;1.00;;;14.80;98.20;;;;;;4979364;28;20484;-85
2023/10/10 01:40:28;;;;;;;1.50;1.00;;;14.80;98.20;;;;;;4985724;28;20481;-85
2023/10/10 01:43:10;;;;;;;1.50;1.00;;;14.80;98.20;;;;;;4989056;28;21044;-85
2023/10/10 01:45:41;;;;;;;1.50;1.00;;;14.80;98.20;;;;;;4976204;28;20458;-84
2023/10/10 01:48:27;;;;;;;1.50;1.00;;;14.80;98.20;;;;;;4982859;28;20515;-84
2023/10/10 01:50:54;;;;;;;1.50;1.00;;;14.80;98.20;;;;;;4963792;28;20871;-85
2023/10/10 01:53:26;;;;;;;1.50;1.00;;;14.80;98.20;;;;;;5011451;28;20494;-86
2023/10/10 01:56:06;;;;;;;1.50;1.10;;;14.70;98.20;;;;;;4975729;28;20784;-85
2023/10/10 01:58:45;;;;;;;1.50;1.00;;;14.70;98.20;;;;;;4990092;28;20571;-85
2023/10/10 02:01:23;;;;;;;1.50;1.00;;;14.70;98.20;;;;;;4980201;28;20477;-85
2023/10/10 02:03:55;;;;;;;1.50;1.00;;;14.70;98.20;;;;;;4998555;28;20522;-85
2023/10/10 02:06:25;;;;;;;1.50;1.10;;;14.70;98.20;;;;;;4975091;28;20477;-84
2023/10/10 02:09:11;;;;;;;1.50;1.10;;;14.70;98.20;;;;;;4985753;28;20462;-86
2023/10/10 02:11:50;;;;;;;1.50;1.00;;;14.70;98.20;;;;;;4974148;28;20477;-86
2023/10/10 02:14:27;;;;;;;1.50;1.00;;;14.70;98.20;;;;;;4998697;28;20462;-84
2023/10/10 02:17:19;;;;;;;1.50;1.00;;;14.70;98.20;;;;;;4980235;28;20484;-84
2023/10/10 02:19:54;;;;;;;1.50;1.00;;;14.70;98.20;;;;;;4988262;28;20494;-84
2023/10/10 02:22:33;;;;;;;1.50;1.00;;;14.70;98.20;;;;;;4989159;28;20513;-83
2023/10/10 02:28:03;;;;;;;1.50;1.00;;;14.60;98.20;;;;;;4985263;28;20481;-86
2023/10/10 02:30:35;;;;;;;1.50;1.00;;;14.60;98.20;;;;;;4981760;28;20515;-85
2023/10/10 02:33:12;;;;;;;1.50;1.00;;;14.50;98.20;;;;;;5001501;28;20491;-86
2023/10/10 02:35:54;;;;;;;1.50;1.00;;;14.50;98.20;;;;;;4974833;28;20475;-85
2023/10/10 02:38:31;;;;;;;1.50;1.10;;;14.50;98.20;;;;;;4978804;28;20513;-85
2023/10/10 02:41:24;;;;;;;1.50;0.90;;;14.50;98.20;;;;;;4981821;28;20449;-85
2023/10/10 02:44:05;;;;;;;1.50;1.00;;;14.50;98.20;;;;;;4997144;28;20470;-86
2023/10/10 02:46:37;;;;;;;1.50;1.00;;;14.50;98.20;;;;;;4974953;28;20487;-85
2023/10/10 02:49:30;;;;;;;1.50;1.00;;;14.50;98.20;;;;;;4995339;28;20462;-86
2023/10/10 02:52:06;;;;;;;1.53;1.00;;;14.40;98.20;;;;;;4986790;28;20473;-85
2023/10/10 02:54:53;;;;;;;1.50;1.00;;;14.40;98.20;;;;;;4979410;28;20457;-84
2023/10/10 02:57:39;;;;;;;1.50;1.00;;;14.40;98.20;;;;;;4979829;28;20485;-85
2023/10/10 03:03:11;;;;;;;1.50;1.00;;;14.40;98.20;;;;;;4983638;28;20483;-86
2023/10/10 03:05:43;;;;;;;1.50;1.00;;;14.40;98.20;;;;;;4975113;28;20462;-85
2023/10/10 03:08:17;;;;;;;1.50;1.10;;;14.40;98.20;;;;;;4997358;28;20563;-85
2023/10/10 03:10:53;;;;;;;1.50;0.97;;;14.40;98.20;;;;;;4988112;28;20971;-85
2023/10/10 03:13:31;;;;;;;1.50;1.00;;;14.30;98.20;;;;;;4968212;28;20508;-84
2023/10/10 03:16:29;;;;;;;1.50;1.00;;;14.30;98.20;;;;;;4967041;28;20465;-84
2023/10/10 03:19:12;;;;;;;1.60;1.37;;;14.30;98.20;;;;;;4993631;28;20636;-85
2023/10/10 03:21:50;;;;;;;1.60;1.30;;;14.30;98.20;;;;;;4977033;28;20913;-85
2023/10/10 03:24:30;;;;;;;1.50;1.10;;;14.30;98.20;;;;;;4988387;28;20497;-85
2023/10/10 03:27:11;;;;;;;1.50;1.00;;;14.30;98.20;;;;;;4979361;28;20995;-84
2023/10/10 03:29:47;;;;;;;1.50;1.00;;;14.30;98.20;;;;;;4977527;28;20570;-85
2023/10/10 03:32:32;;;;;;;1.50;1.00;;;14.30;98.20;;;;;;4972595;28;20489;-85
2023/10/10 03:35:06;;;;;;;1.50;1.00;;;14.30;98.20;;;;;;4978084;28;20458;-84
2023/10/10 03:37:41;;;;;;;1.50;1.00;;;14.30;98.20;;;;;;4981742;28;20485;-83
2023/10/10 03:40:26;;;;;;;1.50;1.00;;;14.30;98.20;;;;;;4977961;28;20464;-84
2023/10/10 05:25:37;;;;;;;1.50;1.10;;;14.00;98.20;;;;;;5051518;28;20492;-83
2023/10/10 05:28:04;;;;;;;1.50;1.00;;;14.00;98.20;;;;;;5046930;28;20571;-83
2023/10/10 05:30:42;;;;;;;1.53;1.10;;;14.00;98.20;;;;;;5049235;28;20576;-83
2023/10/10 05:36:50;;;;;;;1.50;1.00;;;14.10;98.20;;;;;;5027004;28;20468;-83
2023/10/10 05:39:20;;;;;;;1.50;1.10;;;14.10;98.20;;;;;;5061976;28;20596;-83
2023/10/10 05:42:20;;;;;;;1.50;1.10;;;14.10;98.20;;;;;;5051473;28;20904;-83
2023/10/10 05:44:50;;;;;;;1.50;1.00;;;14.00;98.20;;;;;;5050759;28;20466;-83
2023/10/10 05:47:20;;;;;;;1.50;0.90;;;14.10;98.20;;;;;;5051320;28;20569;-83
2023/10/10 05:49:47;;;;;;;1.50;1.00;;;14.10;98.20;;;;;;5049330;28;20466;-83
2023/10/10 05:52:19;;;;;;;1.50;1.10;;;14.10;98.20;;;;;;5048671;28;20989;-83
2023/10/10 05:54:46;;;;;;;1.50;1.00;;;14.10;98.20;;;;;;5051108;28;20532;-83
2023/10/10 05:57:13;;;;;;;1.50;1.00;;;14.10;98.20;;;;;;5050767;28;20550;-83
2023/10/10 05:59:40;;;;;;;1.50;1.00;;;14.00;98.20;;;;;;5052640;28;20473;-83
2023/10/10 06:02:11;;;;;;;1.50;1.10;;;14.10;98.20;;;;;;5050989;28;20508;-80
2023/10/10 06:04:43;;;;;;;1.50;1.00;;;14.00;98.20;;;;;;5051917;28;20466;-83
2023/10/10 06:07:14;;;;;;;1.50;1.00;;;14.10;98.20;;;;;;5052797;28;20577;-83
2023/10/10 06:09:41;;;;;;;1.50;1.00;;;14.10;98.20;;;;;;5052427;28;21096;-82
2023/10/10 06:12:09;;;;;;;1.50;1.00;;;14.10;98.20;;;;;;5052078;28;20490;-84
2023/10/10 06:14:37;;;;;;;1.50;1.00;;;14.10;98.20;;;;;;5051977;28;20909;-83
2023/10/10 06:17:04;;;;;;;1.50;1.10;;;14.10;98.20;;;;;;5051604;28;20497;-85
2023/10/10 06:19:31;;;;;;;1.50;1.00;;;14.10;98.20;;;;;;5054058;28;20466;-83
2023/10/10 06:22:02;;;;;;;1.50;1.00;;;14.20;98.20;;;;;;5052768;28;20516;-83
2023/10/10 06:24:33;;;;;;;1.50;1.10;;;14.20;98.20;;;;;;5050612;28;20466;-83
2023/10/10 06:27:01;;;;;;;1.50;1.00;;;14.20;98.20;;;;;;5054971;28;20500;-83
2023/10/10 06:29:29;;;;;;;1.50;1.00;;;14.20;98.20;;;;;;5059208;28;20458;-83
2023/10/10 06:31:56;;;;;;;1.57;1.10;;;14.20;98.20;;;;;;5051958;28;20483;-83
2023/10/10 06:34:25;;;;;;;1.50;1.00;;;14.20;98.20;;;;;;5045932;28;20458;-83
2023/10/10 06:36:54;;;;;;;1.50;1.10;;;14.30;98.20;;;;;;5046648;28;20505;-82
2023/10/10 06:39:32;;;;;;;1.50;1.00;;;14.30;98.20;;;;;;5047451;28;20928;-82
2023/10/10 06:42:08;;;;;;;1.50;1.00;;;14.30;98.20;;;;;;5049483;28;20475;-82
2023/10/10 06:44:39;;;;;;;1.53;1.07;;;14.30;98.20;;;;;;5050943;28;20480;-82
2023/10/10 06:47:10;;;;;;;1.50;1.00;;;14.30;98.20;;;;;;5046322;28;20484;-83
2023/10/10 06:49:55;;;;;;;1.50;1.00;;;14.40;98.20;;;;;;5047284;28;20524;-83
2023/10/10 06:52:27;;;;;;;1.50;1.00;;;14.40;98.20;;;;;;5049147;28;20483;-82
2023/10/10 06:54:58;;;;;;;1.57;1.00;;;14.50;98.20;;;;;;5047977;28;20459;-83
2023/10/10 06:57:38;;;;;;;1.50;1.00;;;14.50;98.20;;;;;;5048229;28;20877;-83
2023/10/10 07:00:20;;;;;;;1.50;1.00;;;14.60;98.20;;;;;;5050944;28;20545;-82
2023/10/10 07:02:49;;;;;;;1.50;1.00;;;14.70;98.20;;;;;;5048984;28;20843;-83
2023/10/10 07:05:19;;;;;;;1.53;1.10;;;14.80;98.20;;;;;;5048440;28;20490;-83
2023/10/10 07:07:46;;;;;;;1.50;1.00;;;14.80;98.20;;;;;;5051831;28;20482;-83
2023/10/10 07:10:25;;;;;;;1.50;1.00;;;14.90;98.20;;;;;;5049162;28;20454;-83
2023/10/10 07:12:57;;;;;;;1.50;0.90;;;15.00;98.20;;;;;;5049841;28;20458;-83
2023/10/10 07:15:24;;;;;;;1.50;1.00;;;15.10;98.20;;;;;;5049328;28;20471;-83
2023/10/10 07:18:04;;;;;;;1.50;1.10;;;15.20;98.20;;;;;;5051149;28;20561;-84
2023/10/10 07:23:21;;;;;;;1.57;1.10;;;15.30;98.20;;;;;;5048163;28;20472;-83
2023/10/10 07:25:59;;;;;;;1.50;1.00;;;15.50;98.20;;;;;;5053718;28;21121;-82
2023/10/10 07:28:26;;;;;;;1.50;0.93;;;15.50;98.20;;;;;;5047392;28;20557;-82
2023/10/10 07:30:53;;;;;;;1.50;1.00;;;15.60;98.20;;;;;;5047345;28;20841;-82
2023/10/10 07:33:23;;;;;;;1.53;1.10;;;15.70;98.20;;;;;;5046166;28;20478;-83
2023/10/10 07:35:53;;;;;;;1.60;1.20;;;15.80;98.20;;;;;;5048099;28;20881;-83
2023/10/10 07:38:23;;;;;;;1.50;1.00;;;15.80;98.20;;;;;;5049112;28;20760;-82
2023/10/10 07:40:52;;;;;;;1.50;1.00;;;15.90;98.20;;;;;;5049089;28;20516;-83
2023/10/10 07:43:18;;;;;;;1.50;0.90;;;16.00;98.20;;;;;;5048460;28;20545;-82
2023/10/10 07:45:47;;;;;;;1.50;1.00;;;16.10;98.20;;;;;;5049414;28;20470;-84
2023/10/10 07:51:06;;;;;;;1.50;0.90;;;16.10;98.20;;;;;;5050851;28;20473;-83
2023/10/10 07:53:42;;;;;;;1.50;0.97;;;16.20;98.20;;;;;;5050435;28;20481;-85
2023/10/10 07:56:10;;;;;;;1.97;1.77;;;16.30;98.20;;;;;;5047217;28;20523;-81
2023/10/10 07:58:49;;;;;;;1.53;1.00;;;16.40;98.20;;;;;;5049983;28;21082;-83
2023/10/10 08:01:17;;;;;;;1.50;1.00;;;16.50;98.20;;;;;;5049606;28;20458;-83
2023/10/10 08:03:48;;;;;;;1.50;0.90;;;16.60;98.20;;;;;;5050202;28;20494;-85
2023/10/10 08:06:21;;;;;;;1.53;1.00;;;16.80;98.20;;;;;;5049007;28;20471;-82
2023/10/10 08:08:56;;;;;;;1.50;1.00;;;16.90;98.20;;;;;;5050547;28;20478;-84
2023/10/10 08:11:35;;;;;;;1.50;1.00;;;17.00;98.20;;;;;;5045086;28;20495;-83
2023/10/10 08:14:06;;;;;;;1.50;1.00;;;17.20;98.20;;;;;;5049306;28;20458;-84
2023/10/10 08:16:35;;;;;;;1.53;0.93;;;17.30;98.20;;;;;;5048560;28;20658;-83
2023/10/10 08:19:06;;;;;;;1.50;1.00;;;17.40;98.20;;;;;;5049355;28;20964;-83
2023/10/10 08:21:38;;;;;;;1.57;1.00;;;17.50;98.20;;;;;;5047733;28;20712;-83
2023/10/10 08:24:06;;;;;;;1.57;1.00;;;17.60;98.20;;;;;;5046320;28;20459;-81
2023/10/10 08:26:41;;;;;;;1.50;1.00;;;17.60;98.20;;;;;;5046446;28;20478;-84
2023/10/10 08:29:11;;;;;;;1.50;1.00;;;17.80;98.20;;;;;;5045417;28;20494;-82
2023/10/10 08:31:42;;;;;;;1.50;1.00;;;17.90;98.20;;;;;;5042952;28;20485;-83
2023/10/10 08:34:09;;;;;;;1.50;0.90;;;18.00;98.20;;;;;;5048569;28;20584;-83
2023/10/10 08:36:38;;;;;;;1.50;1.00;;;18.00;98.20;;;;;;5047336;28;20466;-83
2023/10/10 08:39:24;;;;;;;1.50;0.90;;;18.10;98.20;;;;;;5046741;28;20466;-81
2023/10/10 08:41:53;;;;;;;1.50;0.90;;;18.30;98.20;;;;;;5047180;28;20470;-83
2023/10/10 08:44:21;;;;;;;1.50;0.90;;;18.40;98.20;;;;;;5047805;28;20900;-82
2023/10/10 08:46:49;;;;;;;1.53;0.93;;;18.50;98.20;;;;;;5045879;28;20486;-83
2023/10/10 08:49:17;;;;;;;1.50;1.00;;;18.70;98.20;;;;;;5050710;28;20542;-80
2023/10/10 08:51:44;;;;;;;1.57;1.00;;;18.80;98.20;;;;;;5048053;28;20655;-79
2023/10/10 08:54:15;;;;;;;1.50;0.90;;;18.90;98.20;;;;;;5048039;28;20466;-83
2023/10/10 08:56:42;;;;;;;1.50;1.00;;;19.00;98.20;;;;;;5045352;28;20750;-80
2023/10/10 08:59:12;;;;;;;1.50;0.90;;;19.20;98.20;;;;;;5048305;28;20549;-83
2023/10/10 09:01:39;;;;;;;1.50;1.00;;;19.30;98.20;;;;;;5049331;28;20458;-82
2023/10/10 09:04:12;;;;;;;1.50;0.90;;;19.50;98.20;;;;;;5049663;28;20458;-83
2023/10/10 09:07:20;;;;;;;1.50;0.90;;;19.60;98.20;;;;;;5047872;28;20472;-81
2023/10/10 09:09:54;;;;;;;1.60;1.10;;;19.70;98.20;;;;;;5047638;28;20497;-79
2023/10/10 09:12:25;;;;;;;1.57;0.90;;;19.80;98.20;;;;;;5048239;28;20501;-78
2023/10/10 09:14:53;;;;;;;1.50;0.90;;;19.90;98.20;;;;;;5046313;28;20485;-81
2023/10/10 09:17:28;;;;;;;1.50;0.90;;;20.00;98.20;;;;;;5046961;28;20478;-82
2023/10/10 09:19:57;;;;;;;1.50;0.90;;;20.10;98.20;;;;;;5051991;28;20461;-79
2023/10/10 09:22:30;;;;;;;1.50;0.90;;;20.20;98.20;;;;;;5052345;28;20764;-81
2023/10/10 09:24:59;;;;;;;1.60;1.17;;;20.30;98.20;;;;;;5049478;28;20454;-79
2023/10/10 09:27:28;;;;;;;1.50;0.90;;;20.30;98.20;;;;;;5049197;28;20474;-79
2023/10/10 09:30:00;;;;;;;1.50;0.90;;;20.40;98.20;;;;;;5050645;28;20524;-78
2023/10/10 09:32:36;;;;;;;1.50;0.90;;;20.50;98.20;;;;;;5046305;28;20759;-79
2023/10/10 09:35:05;;;;;;;1.50;0.90;;;20.60;98.20;;;;;;5048666;28;20466;-79
2023/10/10 09:37:38;;;;;;;1.50;0.90;;;20.70;98.20;;;;;;5051471;28;20493;-79
2023/10/10 09:40:15;;;;;;;1.50;0.90;;;20.80;98.20;;;;;;5051557;28;20458;-78
2023/10/10 09:42:53;;;;;;;1.50;0.90;;;20.80;98.20;;;;;;5045672;28;20466;-79
2023/10/10 09:45:51;;;;;;;1.50;0.90;;;20.90;98.20;;;;;;5049001;28;20489;-78
2023/10/10 09:48:27;;;;;;;1.50;0.90;;;21.00;98.20;;;;;;5047604;28;20477;-77
2023/10/10 09:51:15;;;;;;;1.50;0.90;;;21.20;98.20;;;;;;5045359;28;20567;-82
2023/10/10 09:53:46;;;;;;;1.50;0.90;;;21.30;98.20;;;;;;5049919;28;20570;-82
2023/10/10 09:56:15;;;;;;;1.50;0.90;;;21.50;98.20;;;;;;5048457;28;20470;-80
2023/10/10 09:58:46;;;;;;;1.50;0.90;;;21.60;98.20;;;;;;5049832;28;20539;-80
2023/10/10 10:01:22;;;;;;;1.50;0.90;;;21.70;98.20;;;;;;5049346;28;20468;-81
2023/10/10 10:04:00;;;;;;;1.50;0.90;;;21.80;98.20;;;;;;5048982;28;20820;-80
2023/10/10 10:06:56;;;;;;;1.50;0.90;;;21.80;98.20;;;;;;5047322;28;21644;-80
2023/10/10 10:09:58;;;;;;;1.50;0.90;;;21.90;98.20;;;;;;5047402;28;20465;-78
2023/10/10 10:12:42;;;;;;;1.50;0.90;;;21.90;98.20;;;;;;5048036;28;20577;-79
2023/10/10 10:15:28;;;;;;;1.50;0.90;;;22.00;98.20;;;;;;5048841;28;20524;-80
2023/10/10 10:18:12;;;;;;;1.50;0.90;;;22.10;98.20;;;;;;5040059;28;20474;-79
2023/10/10 10:20:46;;;;;;;1.50;0.90;;;22.10;98.20;;;;;;5051106;28;20859;-78
2023/10/10 10:23:18;;;;;;;1.50;0.90;;;22.20;98.20;;;;;;5021309;28;20676;-79
2023/10/10 10:26:04;;;;;;;1.50;0.87;;;22.40;98.20;;;;;;5048752;28;21085;-79
2023/10/10 10:28:35;;;;;;;1.50;0.90;;;22.50;98.20;;;;;;5033497;28;20486;-79
2023/10/10 10:31:05;;;;;;;1.50;0.90;;;22.60;98.20;;;;;;5041312;28;20896;-78
2023/10/10 10:33:35;;;;;;;1.50;0.90;;;22.70;98.10;;;;;;5058012;28;20467;-79
2023/10/10 10:36:15;;;;;;;1.50;0.90;;;22.90;98.20;;;;;;5037411;28;20467;-78
2023/10/10 10:41:41;;;;;;;1.47;0.90;;;23.20;97.00;;;;;;5041329;28;20472;-78
2023/10/10 10:44:11;;;;;;;1.50;0.90;;;23.30;97.10;;;;;;5056955;28;20474;-78
2023/10/10 10:46:41;;;;;;;1.50;0.90;;;23.50;96.90;;;;;;5036838;28;20469;-79
2023/10/10 10:49:13;;;;;;;1.50;0.90;;;23.70;96.30;;;;;;5049821;28;20844;-78
2023/10/10 10:51:42;;;;;;;1.50;0.80;;;23.70;94.60;;;;;;5044984;28;20489;-78
2023/10/10 10:54:29;;;;;;;1.60;1.13;;;23.80;93.90;;;;;;5057692;28;20458;-79
2023/10/10 10:57:01;;;;;;;1.47;0.90;;;23.90;94.60;;;;;;5044197;28;20482;-79
2023/10/10 10:59:35;;;;;;;1.47;0.90;;;24.10;94.90;;;;;;5053137;28;20856;-79
2023/10/10 11:02:13;;;;;;;1.50;0.90;;;24.20;94.00;;;;;;5048365;28;20518;-79
2023/10/10 11:04:49;;;;;;;1.50;0.90;;;24.30;93.50;;;;;;5050109;28;20461;-79
2023/10/10 11:07:26;;;;;;;1.50;0.90;;;24.30;93.70;;;;;;5047732;28;20489;-79
2023/10/10 11:10:06;;;;;;;1.50;0.80;;;24.30;91.70;;;;;;5048325;28;20927;-77
2023/10/10 11:12:36;;;;;;;1.50;0.83;;;24.40;94.20;;;;;;5049452;28;20734;-78
2023/10/10 11:15:07;;;;;;;1.50;0.80;;;24.50;94.20;;;;;;5046489;28;20461;-78
2023/10/10 11:17:38;;;;;;;1.50;0.87;;;24.70;94.00;;;;;;5050348;28;21150;-77
2023/10/10 11:20:29;;;;;;;1.47;0.80;;;24.90;93.30;;;;;;5046619;28;20890;-81
2023/10/10 11:23:08;;;;;;;1.43;0.80;;;25.00;92.60;;;;;;5051104;28;20470;-79
2023/10/10 11:25:45;;;;;;;1.50;0.90;;;25.10;91.50;;;;;;5049630;28;20462;-79
2023/10/10 11:28:21;;;;;;;1.47;0.90;;;25.20;91.90;;;;;;5036661;28;20488;-80
2023/10/10 11:30:50;;;;;;;1.50;1.00;;;25.30;92.10;;;;;;5035396;28;20512;-80
2023/10/10 11:33:46;;;;;;;1.50;0.90;;;25.40;91.70;;;;;;5061024;28;20567;-80
2023/10/10 11:36:37;;;;;;;1.47;0.90;;;25.50;91.20;;;;;;5036825;28;20477;-79
2023/10/10 11:39:16;;;;;;;1.50;1.00;;;25.60;90.20;;;;;;5055309;28;20528;-80
2023/10/10 11:41:46;;;;;;;1.50;0.80;;;25.60;90.10;;;;;;5039015;28;21092;-79
2023/10/10 11:44:18;;;;;;;1.50;0.80;;;25.60;91.30;;;;;;5050528;28;21728;-79
2023/10/10 11:46:47;;;;;;;1.77;1.10;;;25.60;89.10;;;;;;5044455;28;20564;-79
2023/10/10 11:49:16;;;;;;;1.50;0.90;;;25.70;90.60;;;;;;5054355;28;20553;-79
2023/10/10 11:51:45;;;;;;;1.50;0.80;;;25.80;90.60;;;;;;5044485;28;20481;-78
2023/10/10 11:54:12;;;;;;;1.50;0.80;;;25.80;89.20;;;;;;5058545;28;21130;-78
2023/10/10 11:56:39;;;;;;;1.50;0.90;;;25.90;87.50;;;;;;5042423;28;20664;-78
2023/10/10 11:59:09;;;;;;;1.47;0.80;;;25.90;88.60;;;;;;5053076;28;20545;-78
2023/10/10 12:01:54;;;;;;;1.50;0.90;;;26.00;88.20;;;;;;5040253;28;20469;-79
2023/10/10 12:04:30;;;;;;;1.47;0.80;;;26.10;88.00;;;;;;5050684;28;20458;-80
2023/10/10 12:07:00;;;;;;;1.50;0.80;;;26.20;88.60;;;;;;5038740;28;20476;-80
2023/10/10 12:09:28;;;;;;;1.50;0.80;;;26.30;87.80;;;;;;5049447;28;20592;-80
2023/10/10 12:12:03;;;;;;;1.40;0.80;;;26.40;86.70;;;;;;5042182;28;20481;-80
2023/10/10 12:14:31;;;;;;;1.47;0.80;;;26.50;85.90;;;;;;5047291;28;21544;-77
2023/10/10 12:16:59;;;;;;;1.50;0.80;;;26.50;86.70;;;;;;5034118;28;20513;-80
2023/10/10 12:19:28;;;;;;;1.50;0.90;;;26.60;86.00;;;;;;5044791;28;20474;-79
2023/10/10 12:22:03;;;;;;;1.40;0.80;;;26.60;81.90;;;;;;5041411;28;20476;-79
2023/10/10 12:24:31;;;;;;;1.47;0.90;;;26.60;82.00;;;;;;5047450;28;20457;-80
2023/10/10 12:26:59;;;;;;;1.50;0.90;;;26.60;81.30;;;;;;5040602;28;20480;-79
2023/10/10 12:29:27;;;;;;;1.50;0.90;;;26.70;81.60;;;;;;5049458;28;20528;-80
2023/10/10 12:31:55;;;;;;;1.40;0.80;;;26.80;83.00;;;;;;5043397;28;20481;-79
2023/10/10 12:34:23;;;;;;;1.47;0.80;;;26.80;80.50;;;;;;5051064;28;20469;-79
2023/10/10 12:36:58;;;;;;;1.50;0.90;;;26.90;81.00;;;;;;5041647;28;20608;-79
2023/10/10 12:39:27;;;;;;;1.50;0.80;;;27.00;81.00;;;;;;5050580;28;20473;-79
2023/10/10 12:41:56;;;;;;;1.50;0.90;;;27.10;80.90;;;;;;5041494;28;20648;-80
2023/10/10 12:44:23;;;;;;;1.40;0.80;;;27.20;81.30;;;;;;5052003;28;20549;-79
2023/10/10 12:46:54;;;;;;;1.50;0.90;;;27.30;81.10;;;;;;5038957;28;20817;-80
2023/10/10 12:49:28;;;;;;;1.47;0.80;;;27.40;80.10;;;;;;5046800;28;20933;-80
2023/10/10 12:51:58;;;;;;;1.50;0.87;;;27.50;81.00;;;;;;5043882;28;21038;-79
2023/10/10 12:54:34;;;;;;;1.40;0.90;;;27.60;79.50;;;;;;5052751;28;20834;-79
2023/10/10 12:57:06;;;;;;;1.47;0.80;;;27.70;80.30;;;;;;5046172;28;20498;-79
2023/10/10 12:59:33;;;;;;;1.43;0.80;;;27.70;80.20;;;;;;5053896;28;20766;-80
2023/10/10 13:02:03;;;;;;;1.47;0.80;;;27.80;78.70;;;;;;5048783;28;20484;-77
2023/10/10 13:04:32;;;;;;;1.47;0.80;;;27.80;79.20;;;;;;5051807;28;20457;-80
2023/10/10 13:07:02;;;;;;;1.63;1.30;;;27.80;78.70;;;;;;5048679;28;21211;-80
2023/10/10 13:09:30;;;;;;;1.43;0.80;;;27.80;77.40;;;;;;5051209;28;20458;-79
2023/10/10 13:11:57;;;;;;;1.47;0.80;;;27.70;77.70;;;;;;5047738;28;20476;-78
2023/10/10 13:14:29;;;;;;;1.43;0.80;;;27.70;78.80;;;;;;5050682;28;20469;-80
2023/10/10 13:17:13;;;;;;;1.43;0.80;;;27.70;77.20;;;;;;5045103;28;20489;-80
2023/10/10 13:19:41;;;;;;;1.50;0.80;;;27.80;78.10;;;;;;5051010;28;20457;-81
2023/10/10 13:22:20;;;;;;;1.50;0.80;;;27.80;76.90;;;;;;5045261;28;20918;-80
2023/10/10 13:24:48;;;;;;;1.50;0.90;;;27.80;78.10;;;;;;5049041;28;21048;-78
2023/10/10 13:27:15;;;;;;;1.40;0.90;;;27.80;77.80;;;;;;5048840;28;20480;-80
2023/10/10 13:29:43;;;;;;;1.43;0.80;;;27.70;75.40;;;;;;5054370;28;20465;-81
2023/10/10 13:32:10;;;;;;;1.40;0.80;;;27.70;76.80;;;;;;5050632;28;20477;-80
2023/10/10 13:34:37;;;;;;;1.43;0.80;;;27.60;76.40;;;;;;5054575;28;20810;-81
2023/10/10 13:37:07;;;;;;;1.40;0.80;;;27.60;77.10;;;;;;5048638;28;20987;-80
2023/10/10 13:39:43;;;;;;;1.40;0.80;;;27.60;77.80;;;;;;5051855;28;20469;-80
2023/10/10 13:42:14;;;;;;;1.43;0.80;;;27.70;78.80;;;;;;5046904;28;20491;-79
2023/10/10 13:44:42;;;;;;;1.50;0.80;;;27.60;76.90;;;;;;5051753;28;20462;-80
2023/10/10 13:47:10;;;;;;;1.50;0.80;;;27.60;77.40;;;;;;5049606;28;20485;-80
2023/10/10 13:49:44;;;;;;;1.40;0.80;;;27.60;75.70;;;;;;5053550;28;20987;-80
2023/10/10 13:52:12;;;;;;;1.50;0.90;;;27.60;77.30;;;;;;5046537;28;20777;-78
2023/10/10 13:54:39;;;;;;;1.47;0.80;;;27.60;75.90;;;;;;5049608;28;20542;-78
2023/10/10 13:57:07;;;;;;;1.43;0.90;;;27.50;75.90;;;;;;5048459;28;20572;-80
2023/10/10 13:59:34;;;;;;;1.43;0.80;;;27.40;76.60;;;;;;5053786;28;20960;-81
2023/10/10 14:02:03;;;;;;;1.40;0.80;;;27.40;76.80;;;;;;5047735;28;20534;-79
2023/10/10 14:04:45;;;;;;;1.50;0.80;;;27.40;76.10;;;;;;5050539;28;20461;-80
2023/10/10 14:07:14;;;;;;;1.47;0.90;;;27.40;79.50;;;;;;5035946;28;21068;-78
2023/10/10 14:09:47;;;;;;;1.40;0.80;;;27.40;77.40;;;;;;5045801;28;20497;-79
2023/10/10 14:12:20;;;;;;;1.43;0.90;;;27.40;78.90;;;;;;5037842;28;20481;-79
2023/10/10 14:14:47;;;;;;;1.47;0.80;;;27.30;75.30;;;;;;5050764;28;20462;-79
2023/10/10 14:17:15;;;;;;;1.47;0.87;;;27.30;76.00;;;;;;5046775;28;20477;-80
2023/10/10 14:19:43;;;;;;;1.40;0.80;;;27.20;75.40;;;;;;5050719;28;20541;-80
2023/10/10 14:22:12;;;;;;;1.47;0.80;;;27.10;75.20;;;;;;5046759;28;20477;-79
2023/10/10 14:24:39;;;;;;;1.43;0.80;;;27.10;76.00;;;;;;5050106;28;20939;-79
2023/10/10 14:27:06;;;;;;;1.47;0.80;;;27.00;76.10;;;;;;5044223;28;20920;-79
2023/10/10 14:29:41;;;;;;;1.43;0.90;;;26.90;75.80;;;;;;5050755;28;20562;-79
2023/10/10 14:32:10;;;;;;;1.43;0.80;;;26.90;76.20;;;;;;5046231;28;21026;-79
2023/10/10 14:34:41;;;;;;;1.60;1.13;;;26.80;75.60;;;;;;5051789;28;20476;-79
2023/10/10 14:37:08;;;;;;;1.50;0.80;;;26.80;76.00;;;;;;5046582;28;20499;-79
2023/10/10 14:39:44;;;;;;;2.73;1.53;;;26.70;76.10;;;;;;5050377;28;20502;-80
2023/10/10 14:42:13;;;;;;;1.50;0.80;;;26.60;74.90;;;;;;5047988;28;20562;-78
2023/10/10 14:44:41;;;;;;;1.47;0.83;;;26.50;76.20;;;;;;5051705;28;20508;-80
2023/10/10 14:47:09;;;;;;;1.47;0.80;;;26.40;76.70;;;;;;5036902;28;20478;-79
2023/10/10 14:49:38;;;;;;;1.47;0.83;;;26.30;77.20;;;;;;5047344;28;20473;-79
2023/10/10 14:52:06;;;;;;;1.47;0.80;;;26.30;76.90;;;;;;5044428;28;20556;-80
2023/10/10 14:54:37;;;;;;;1.43;0.80;;;26.10;76.30;;;;;;5050350;28;20589;-80
2023/10/10 14:57:04;;;;;;;1.50;0.90;;;26.10;77.90;;;;;;5034791;28;20928;-79
2023/10/10 14:59:32;;;;;;;1.50;0.90;;;26.00;77.50;;;;;;5046515;28;20497;-80
2023/10/10 15:02:00;;;;;;;1.47;0.80;;;25.90;77.30;;;;;;5047987;28;20496;-80
2023/10/10 15:04:29;;;;;;;1.50;0.80;;;25.70;78.30;;;;;;5051454;28;20461;-80
2023/10/10 15:07:00;;;;;;;1.47;0.90;;;25.60;79.40;;;;;;5044689;28;20477;-79
2023/10/10 15:09:27;;;;;;;1.50;0.83;;;25.50;79.20;;;;;;5052588;28;20490;-79
2023/10/10 15:11:58;;;;;;;1.47;0.90;;;25.40;79.50;;;;;;5046216;28;20493;-81
2023/10/10 15:14:25;;;;;;;1.50;0.90;;;25.20;81.00;;;;;;5053045;28;20474;-80
2023/10/10 15:16:52;;;;;;;1.47;0.80;;;25.10;81.20;;;;;;5047201;28;21103;-81
2023/10/10 15:19:19;;;;;;;1.43;0.83;;;25.10;81.80;;;;;;5051747;28;20478;-80
2023/10/10 15:21:48;;;;;;;1.50;0.90;;;25.00;81.60;;;;;;5040588;28;20473;-81
2023/10/10 15:24:16;;;;;;;1.47;0.90;;;24.90;82.30;;;;;;5047918;28;20968;-80